Aeroporto :
LOGIN :

Iscrizione | Disclaimer

   EN    FR    IT 

 










Sommario :    VFR   VFR Marginale   IFR   IFR Intensivo   IFR Molto Intensivo
Visibilità : 
Base nubi : 
>= 8 km
>= 3000ft
5 / 8 km
1000 / 3000 ft
1500m / 5 km
500 / 1000 ft
800 / 1500m
200 / 500 ft
< 800m
< 200 ft
Simboli :   Temporali  Nebbia  Neve Forte  Precipitazioni Forti  Vento > 20 kt
SIGMETs :   Varie  Temporali  Ghiacco  Turbolenza  Onda orograficha  Ceneri Vulcaniche






- Altitudine del aeroporto : 995 ft
- Codice IATA : KTW


EPKT - Katowice

ULTIMO METAR :
  • 120530Z 12004KT CAVOK 04/03 Q1010

METARs OBSOLETI :
  • 120500Z 14004KT CAVOK 03/02 Q1010
  • 120430Z VRB01KT CAVOK 03/02 Q1009
  • 120400Z 11005KT CAVOK 04/02 Q1010
  • 120330Z 10007KT CAVOK 04/02 Q1010
  • 120300Z 12006KT CAVOK 04/02 Q1010

TAF TAF EPKT
Valido dal 12 a 06 ore il 13 a 06 ore UTC


120530Z 1206/1306 14005KT CAVOK
TEMPO 1216/1303 4000 -RA BR
PROB40
TEMPO 1218/1222 BKN012
BECMG 1303/1306 2000 -RA BR BKN008



MetMap, La meteo Aeronautica in un colpo d'occhio ! - Copyright ORBIFLY Dicembre 2007 - Disclaimer

ORBIFLY MET'MAP TEAM :

Programmazione e sviluppo : Alexandra Zaïnal
Concezione e sviluppo : Baudouin d'Aumeries
Co-Programmazione e sviluppo : Marc-Olivier Méhu
Supporto tecnico e logistico : Manuel Goepfert
Aiuto per la traduzione : Arnaldo La Scala

Contatto : metmap@orbifly.com




FONTI E CREDITI :

   NOAA